createdAt,value
2023-04-17T00:01:20.204Z,63.83
2023-04-17T00:03:47.213Z,63.72
2023-04-17T00:06:14.066Z,64.34
2023-04-17T00:08:40.669Z,63.96
2023-04-17T00:11:08.848Z,64.20
2023-04-17T00:13:36.817Z,64.11
2023-04-17T00:16:03.329Z,64.52
2023-04-17T00:18:29.988Z,64.05
2023-04-17T00:20:56.552Z,63.81
2023-04-17T00:23:23.071Z,63.48
2023-04-17T00:25:49.555Z,63.65
2023-04-17T00:28:16.015Z,63.24
2023-04-17T00:30:42.500Z,63.92
2023-04-17T00:33:09.011Z,63.98
2023-04-17T00:35:35.618Z,63.74
2023-04-17T00:38:02.097Z,63.53
2023-04-17T00:40:28.592Z,63.63
2023-04-17T00:43:03.591Z,63.09
2023-04-17T00:45:31.252Z,63.44
2023-04-17T00:48:01.491Z,63.66
2023-04-17T00:50:29.142Z,64.09
2023-04-17T00:52:55.885Z,64.38
2023-04-17T00:55:23.094Z,63.82
2023-04-17T00:57:50.539Z,64.05
2023-04-17T01:00:18.308Z,64.72
2023-04-17T01:02:46.690Z,64.24
2023-04-17T01:05:14.207Z,63.47
2023-04-17T01:07:41.922Z,64.03
2023-04-17T01:10:09.920Z,63.73
2023-04-17T01:12:36.655Z,63.80
2023-04-17T01:15:03.479Z,64.09
2023-04-17T01:17:30.005Z,63.92
2023-04-17T01:19:57.551Z,63.27
2023-04-17T01:22:24.082Z,63.52
2023-04-17T01:24:50.809Z,63.73
2023-04-17T01:27:17.305Z,64.37
2023-04-17T01:29:44.732Z,63.96
2023-04-17T01:32:11.455Z,64.02
2023-04-17T01:34:37.969Z,64.62
2023-04-17T01:37:04.815Z,64.82
2023-04-17T01:39:31.416Z,64.33
2023-04-17T01:41:58.001Z,64.40
2023-04-17T01:44:24.871Z,63.92
2023-04-17T01:46:51.378Z,63.70
2023-04-17T01:49:17.870Z,63.94
2023-04-17T01:51:44.378Z,64.19
2023-04-17T01:54:10.972Z,64.23
2023-04-17T01:56:37.525Z,64.85
2023-04-17T01:59:04.053Z,64.88
2023-04-17T02:01:31.240Z,64.56
2023-04-17T02:03:57.896Z,64.06
2023-04-17T02:06:24.888Z,64.31
2023-04-17T02:08:51.430Z,64.14
2023-04-17T02:11:18.376Z,64.65
2023-04-17T02:13:44.843Z,64.96
2023-04-17T02:16:12.487Z,65.09
2023-04-17T02:18:41.333Z,64.73
2023-04-17T02:21:09.657Z,64.98
2023-04-17T02:23:36.561Z,65.05
2023-04-17T02:26:03.160Z,64.85
2023-04-17T02:28:29.650Z,64.36
2023-04-17T02:30:56.193Z,64.27
2023-04-17T02:33:22.861Z,64.16
2023-04-17T02:35:49.344Z,64.05
2023-04-17T02:38:15.840Z,64.21
2023-04-17T02:40:42.289Z,64.16
2023-04-17T02:43:08.969Z,64.25
2023-04-17T02:45:35.576Z,64.48
2023-04-17T02:48:02.926Z,64.36
2023-04-17T02:50:29.443Z,63.94
2023-04-17T02:52:55.894Z,63.96
2023-04-17T02:55:22.560Z,64.01
2023-04-17T02:57:48.981Z,63.65
2023-04-17T03:00:15.734Z,63.91
2023-04-17T03:02:42.388Z,64.41
2023-04-17T03:05:11.455Z,65.11
2023-04-17T03:07:37.965Z,65.47
2023-04-17T03:10:04.849Z,65.26
2023-04-17T03:12:31.323Z,64.63
2023-04-17T03:14:57.857Z,64.72
2023-04-17T03:17:24.345Z,64.84
2023-04-17T03:19:51.231Z,64.79
2023-04-17T03:22:17.889Z,65.36
2023-04-17T03:24:44.352Z,65.70
2023-04-17T03:27:11.093Z,65.68
2023-04-17T03:29:37.701Z,65.40
2023-04-17T03:32:04.474Z,65.84
2023-04-17T03:34:31.476Z,66.06
2023-04-17T03:36:58.839Z,65.42
2023-04-17T03:39:25.357Z,64.97
2023-04-17T03:41:51.857Z,65.53
2023-04-17T03:44:19.124Z,65.74
2023-04-17T03:46:45.800Z,65.86
2023-04-17T03:49:12.547Z,66.04
2023-04-17T03:51:39.233Z,65.88
2023-04-17T03:54:05.811Z,65.41
2023-04-17T03:56:32.370Z,65.10
2023-04-17T03:58:59.125Z,64.86
2023-04-17T04:01:28.143Z,64.94
2023-04-17T04:03:55.528Z,64.98
2023-04-17T04:06:22.496Z,65.02
2023-04-17T04:08:49.489Z,64.96
2023-04-17T04:11:16.703Z,65.33
2023-04-17T04:13:43.252Z,65.46
2023-04-17T04:16:09.949Z,65.53
2023-04-17T04:18:37.094Z,65.78
2023-04-17T04:21:03.856Z,65.52
2023-04-17T04:23:30.567Z,65.99
2023-04-17T04:25:57.887Z,65.98
2023-04-17T04:28:24.497Z,65.50
2023-04-17T04:30:53.580Z,65.47
2023-04-17T04:33:21.010Z,65.41
2023-04-17T04:35:48.551Z,65.53
2023-04-17T04:38:17.176Z,65.21
2023-04-17T04:40:52.059Z,64.90
2023-04-17T04:43:21.649Z,65.22
2023-04-17T04:45:48.750Z,65.32
2023-04-17T04:48:15.298Z,66.54
2023-04-17T04:50:41.807Z,66.04
2023-04-17T04:53:08.256Z,65.75
2023-04-17T04:55:34.793Z,65.74
2023-04-17T04:58:01.236Z,66.25
2023-04-17T05:00:27.732Z,65.94
2023-04-17T05:02:54.469Z,65.89
2023-04-17T05:05:21.270Z,65.65
2023-04-17T05:07:47.722Z,65.63
2023-04-17T05:10:14.227Z,65.76
2023-04-17T05:12:41.612Z,65.93
2023-04-17T05:15:08.851Z,66.02
2023-04-17T05:17:36.383Z,66.06
2023-04-17T05:20:06.834Z,65.57
2023-04-17T05:22:33.295Z,65.23
2023-04-17T05:24:59.788Z,64.95
2023-04-17T05:27:29.124Z,64.61
2023-04-17T05:29:55.694Z,64.10
2023-04-17T05:32:22.507Z,63.65
2023-04-17T05:34:49.259Z,63.74
2023-04-17T05:37:15.794Z,63.43
2023-04-17T05:39:42.255Z,63.10
2023-04-17T05:42:08.780Z,63.60
2023-04-17T05:44:35.214Z,63.36
2023-04-17T05:47:01.706Z,63.69
2023-04-17T05:49:28.292Z,63.80
2023-04-17T05:51:54.927Z,63.82
2023-04-17T05:54:21.377Z,63.70
2023-04-17T05:56:49.313Z,63.71
2023-04-17T05:59:15.985Z,62.97
2023-04-17T06:01:43.542Z,62.36
2023-04-17T06:04:10.273Z,63.74
2023-04-17T06:06:37.261Z,63.32
2023-04-17T06:09:05.639Z,63.42
2023-04-17T06:11:32.394Z,63.18
2023-04-17T06:13:58.925Z,63.26
2023-04-17T06:16:25.533Z,63.39
2023-04-17T06:18:52.071Z,63.79
2023-04-17T06:21:18.583Z,63.09
2023-04-17T06:23:45.436Z,62.94
2023-04-17T06:26:12.419Z,62.36
2023-04-17T06:28:38.895Z,62.72
2023-04-17T06:31:05.540Z,62.25
2023-04-17T06:33:32.434Z,62.15
2023-04-17T06:35:58.911Z,62.30
2023-04-17T06:38:25.379Z,62.02
2023-04-17T06:40:52.836Z,61.65
2023-04-17T06:43:19.504Z,61.45
2023-04-17T06:45:46.752Z,61.63
2023-04-17T06:48:13.222Z,61.23
2023-04-17T06:50:39.698Z,62.39
2023-04-17T06:53:06.414Z,62.34
2023-04-17T06:55:32.946Z,61.74
2023-04-17T06:57:59.447Z,61.66
2023-04-17T07:00:26.288Z,62.17
2023-04-17T07:02:52.940Z,61.51
2023-04-17T07:05:19.647Z,60.99
2023-04-17T07:07:46.144Z,62.00
2023-04-17T07:10:15.648Z,61.54
2023-04-17T07:12:42.119Z,61.75
2023-04-17T07:15:09.454Z,61.82
2023-04-17T07:17:36.021Z,60.77
2023-04-17T07:20:05.210Z,60.01
2023-04-17T07:22:34.482Z,59.47
2023-04-17T07:25:00.966Z,59.60
2023-04-17T07:27:27.516Z,59.18
2023-04-17T07:29:55.090Z,59.44
2023-04-17T07:32:24.788Z,59.40
2023-04-17T07:34:51.362Z,61.19
2023-04-17T07:37:17.859Z,61.64
2023-04-17T07:39:45.291Z,60.46
2023-04-17T07:42:11.842Z,60.10
2023-04-17T07:44:39.065Z,59.17
2023-04-17T07:47:05.643Z,57.99
2023-04-17T07:49:32.356Z,59.33
2023-04-17T07:51:58.988Z,59.68
2023-04-17T07:54:25.591Z,58.82
2023-04-17T07:56:52.066Z,59.02
2023-04-17T07:59:18.636Z,59.01
2023-04-17T08:01:45.135Z,57.99
2023-04-17T08:04:11.982Z,57.79
2023-04-17T08:06:39.015Z,57.08
2023-04-17T08:09:05.785Z,57.37
2023-04-17T08:11:40.028Z,56.18
2023-04-17T08:14:12.744Z,54.83
2023-04-17T08:16:39.289Z,55.46
2023-04-17T08:19:05.777Z,55.46
2023-04-17T08:21:32.642Z,55.64
2023-04-17T08:23:59.186Z,55.52
2023-04-17T08:26:25.704Z,55.34
2023-04-17T08:28:53.610Z,55.23
2023-04-17T08:31:20.346Z,56.10
2023-04-17T08:33:46.847Z,56.04
2023-04-17T08:36:13.346Z,53.66
2023-04-17T08:38:39.868Z,53.89
2023-04-17T08:41:13.251Z,53.46
2023-04-17T08:43:41.201Z,53.54
2023-04-17T08:46:08.014Z,54.29
2023-04-17T08:48:34.843Z,53.97
2023-04-17T08:51:13.206Z,52.75
2023-04-17T08:53:45.008Z,53.90
2023-04-17T08:56:11.473Z,53.33
2023-04-17T08:58:38.007Z,52.31
2023-04-17T09:01:15.601Z,52.66
2023-04-17T09:03:45.149Z,53.45
2023-04-17T09:06:12.801Z,53.37
2023-04-17T09:08:55.861Z,51.87
2023-04-17T09:11:22.500Z,52.94
2023-04-17T09:13:49.106Z,52.99
2023-04-17T09:16:16.043Z,52.46
2023-04-17T09:18:48.302Z,51.90
2023-04-17T09:21:32.958Z,50.56
2023-04-17T09:23:59.700Z,51.25
2023-04-17T09:26:35.737Z,51.89
2023-04-17T09:29:18.509Z,49.86
2023-04-17T09:31:46.047Z,50.78
2023-04-17T09:34:13.713Z,50.85
2023-04-17T09:36:43.048Z,50.59
2023-04-17T09:39:23.962Z,49.86
2023-04-17T09:42:02.323Z,50.40
2023-04-17T09:44:30.159Z,50.26
2023-04-17T09:46:57.575Z,48.86
2023-04-17T09:49:34.048Z,49.66
2023-04-17T09:52:00.972Z,49.30
2023-04-17T09:54:31.590Z,49.67
2023-04-17T09:57:02.781Z,49.68
2023-04-17T09:59:30.624Z,48.52
2023-04-17T10:01:57.580Z,48.66
2023-04-17T10:04:24.298Z,48.45
2023-04-17T10:06:50.950Z,48.16
2023-04-17T10:09:17.374Z,47.93
2023-04-17T10:11:46.984Z,46.79
2023-04-17T10:14:27.941Z,47.63
2023-04-17T10:16:54.813Z,48.12
2023-04-17T10:19:36.564Z,47.38
2023-04-17T10:22:19.527Z,47.10
2023-04-17T10:24:51.766Z,48.52
2023-04-17T10:27:27.295Z,46.76
2023-04-17T10:29:58.116Z,48.42
2023-04-17T10:32:28.908Z,48.35
2023-04-17T10:35:00.923Z,48.52
2023-04-17T10:37:52.415Z,47.52
2023-04-17T10:40:23.015Z,48.20
2023-04-17T10:43:25.217Z,48.60
2023-04-17T10:46:12.520Z,46.40
2023-04-17T10:48:56.403Z,47.85
2023-04-17T10:51:29.025Z,48.03
2023-04-17T10:54:10.042Z,45.56
2023-04-17T10:56:40.073Z,46.48
2023-04-17T10:59:13.034Z,45.67
2023-04-17T11:01:49.173Z,45.40
2023-04-17T11:04:30.337Z,45.26
2023-04-17T11:06:57.949Z,45.25
2023-04-17T11:09:29.633Z,44.87
2023-04-17T11:12:01.870Z,43.43
2023-04-17T11:14:30.101Z,43.35
2023-04-17T11:16:56.803Z,42.62
2023-04-17T11:19:26.197Z,42.06
2023-04-17T11:21:57.226Z,41.80
2023-04-17T11:24:31.931Z,41.20
2023-04-17T11:27:00.898Z,41.63
2023-04-17T11:29:28.228Z,42.07
2023-04-17T11:31:56.832Z,40.85
2023-04-17T11:34:26.568Z,40.68
2023-04-17T11:37:00.199Z,40.17
2023-04-17T11:39:31.106Z,39.53
2023-04-17T11:41:58.053Z,39.84
2023-04-17T11:44:25.839Z,39.89
2023-04-17T11:46:54.728Z,39.97
2023-04-17T11:49:38.833Z,37.01
2023-04-17T11:52:06.258Z,38.66
2023-04-17T11:54:37.988Z,38.73
2023-04-17T11:57:13.632Z,38.30
2023-04-17T11:59:42.335Z,38.45
2023-04-17T12:02:10.149Z,38.64
2023-04-17T12:04:39.432Z,38.61
2023-04-17T12:07:08.446Z,38.39
2023-04-17T12:09:35.811Z,38.29
2023-04-17T12:12:06.434Z,38.61
2023-04-17T12:14:33.226Z,38.16
2023-04-17T12:16:59.862Z,37.71
2023-04-17T12:19:27.311Z,38.34
2023-04-17T12:21:54.401Z,38.30
2023-04-17T12:24:22.867Z,38.04
2023-04-17T12:26:51.596Z,37.85
2023-04-17T12:29:22.081Z,37.43
2023-04-17T12:31:56.379Z,38.14
2023-04-17T12:34:23.086Z,37.57
2023-04-17T12:36:51.020Z,37.00
2023-04-17T12:39:17.694Z,36.44
2023-04-17T12:41:44.208Z,36.53
2023-04-17T12:44:11.302Z,37.00
2023-04-17T12:46:38.173Z,36.80
2023-04-17T12:49:04.801Z,36.87
2023-04-17T12:51:37.285Z,37.16
2023-04-17T12:54:03.909Z,37.73
2023-04-17T12:56:30.596Z,37.35
2023-04-17T12:58:57.162Z,37.48
2023-04-17T13:01:25.232Z,37.07
2023-04-17T13:03:51.986Z,37.34
2023-04-17T13:06:18.648Z,37.33
2023-04-17T13:08:45.186Z,37.06
2023-04-17T13:11:11.676Z,36.90
2023-04-17T13:13:38.176Z,36.63
2023-04-17T13:16:05.269Z,36.76
2023-04-17T13:18:31.733Z,36.69
2023-04-17T13:20:58.220Z,36.63
2023-04-17T13:23:24.713Z,37.09
2023-04-17T13:25:51.260Z,37.48
2023-04-17T13:28:17.887Z,37.25
2023-04-17T13:30:44.460Z,36.37
2023-04-17T13:33:11.013Z,36.98
2023-04-17T13:35:37.545Z,37.66
2023-04-17T13:38:04.712Z,38.06
2023-04-17T13:40:31.304Z,38.25
2023-04-17T13:42:58.371Z,38.18
2023-04-17T13:45:24.945Z,38.10
2023-04-17T13:47:51.469Z,37.74
2023-04-17T13:50:18.101Z,37.74
2023-04-17T13:52:44.621Z,37.82
2023-04-17T13:55:14.325Z,37.57
2023-04-17T13:57:40.878Z,37.59
2023-04-17T14:00:08.199Z,37.12
2023-04-17T14:02:37.898Z,37.31
2023-04-17T14:05:05.614Z,37.52
2023-04-17T14:07:32.242Z,36.99
2023-04-17T14:09:58.778Z,37.06
2023-04-17T14:12:25.364Z,37.02
2023-04-17T14:14:51.789Z,37.29
2023-04-17T14:17:18.360Z,37.56
2023-04-17T14:19:44.961Z,37.88
2023-04-17T14:22:11.495Z,37.61
2023-04-17T14:24:37.977Z,37.69
2023-04-17T14:27:04.499Z,37.76
2023-04-17T14:29:31.035Z,37.86
2023-04-17T14:31:57.586Z,37.68
2023-04-17T14:34:24.134Z,37.35
2023-04-17T14:36:50.849Z,37.24
2023-04-17T14:39:17.400Z,37.17
2023-04-17T14:41:43.916Z,37.66
2023-04-17T14:44:10.590Z,37.76
2023-04-17T14:46:37.244Z,37.28
2023-04-17T14:49:03.876Z,37.97
2023-04-17T14:51:30.866Z,37.43
2023-04-17T14:53:57.516Z,37.05
2023-04-17T14:56:24.288Z,36.20
2023-04-17T14:58:50.963Z,36.48
2023-04-17T15:01:17.541Z,36.72
2023-04-17T15:03:46.848Z,36.65
2023-04-17T15:06:15.600Z,37.16
2023-04-17T15:08:42.188Z,36.80
2023-04-17T15:11:08.913Z,36.11
2023-04-17T15:13:35.883Z,35.96
2023-04-17T15:16:02.743Z,36.18
2023-04-17T15:18:29.268Z,36.33
2023-04-17T15:20:56.287Z,35.38
2023-04-17T15:23:25.255Z,36.09
2023-04-17T15:25:54.081Z,36.33
2023-04-17T15:28:20.929Z,36.23
2023-04-17T15:30:47.446Z,35.83
2023-04-17T15:33:13.961Z,35.78
2023-04-17T15:35:40.537Z,36.19
2023-04-17T15:38:07.548Z,35.87
2023-04-17T15:40:34.156Z,35.73
2023-04-17T15:43:01.607Z,35.15
2023-04-17T15:45:28.262Z,33.76
2023-04-17T15:47:55.244Z,34.52
2023-04-17T15:50:22.097Z,34.62
2023-04-17T15:52:48.591Z,35.08
2023-04-17T15:55:15.661Z,34.80
2023-04-17T15:57:43.199Z,34.61
2023-04-17T16:00:10.805Z,35.21
2023-04-17T16:02:37.575Z,35.06
2023-04-17T16:05:04.692Z,35.03
2023-04-17T16:07:32.094Z,35.41
2023-04-17T16:09:59.194Z,35.41
2023-04-17T16:12:27.896Z,35.54
2023-04-17T16:14:54.576Z,35.67
2023-04-17T16:17:21.225Z,35.79
2023-04-17T16:19:49.601Z,35.58
2023-04-17T16:22:18.461Z,35.52
2023-04-17T16:24:45.007Z,35.35
2023-04-17T16:27:11.520Z,35.54
2023-04-17T16:29:38.143Z,35.68
2023-04-17T16:32:04.732Z,35.87
2023-04-17T16:34:31.233Z,35.51
2023-04-17T16:36:57.717Z,35.54
2023-04-17T16:39:24.397Z,35.76
2023-04-17T16:41:52.539Z,35.57
2023-04-17T16:44:19.041Z,35.46
2023-04-17T16:47:05.584Z,35.48
2023-04-17T16:49:32.003Z,35.74
2023-04-17T16:51:59.211Z,35.89
2023-04-17T16:54:26.144Z,35.40
2023-04-17T16:56:52.650Z,34.57
2023-04-17T16:59:19.205Z,35.28
2023-04-17T17:01:47.160Z,35.39
2023-04-17T17:04:13.852Z,35.90
2023-04-17T17:06:40.410Z,35.41
2023-04-17T17:09:06.989Z,34.03
2023-04-17T17:11:33.523Z,34.63
2023-04-17T17:14:00.057Z,34.76
2023-04-17T17:16:26.638Z,34.49
2023-04-17T17:18:53.136Z,35.13
2023-04-17T17:21:19.631Z,35.13
2023-04-17T17:23:46.102Z,34.77
2023-04-17T17:26:12.626Z,34.89
2023-04-17T17:28:39.159Z,34.73
2023-04-17T17:31:07.926Z,34.94
2023-04-17T17:33:35.804Z,35.46
2023-04-17T17:36:03.040Z,35.20
2023-04-17T17:38:30.737Z,35.05
2023-04-17T17:40:57.473Z,34.90
2023-04-17T17:43:24.175Z,34.90
2023-04-17T17:45:50.944Z,34.98
2023-04-17T17:48:18.179Z,35.03
2023-04-17T17:50:44.896Z,35.08
2023-04-17T17:53:12.899Z,35.35
2023-04-17T17:55:39.905Z,35.55
2023-04-17T17:58:08.379Z,35.91
2023-04-17T18:00:35.402Z,35.79
2023-04-17T18:03:02.123Z,35.67
2023-04-17T18:05:28.921Z,35.43
2023-04-17T18:07:55.745Z,35.49
2023-04-17T18:10:22.267Z,35.11
2023-04-17T18:12:49.731Z,35.77
2023-04-17T18:15:16.449Z,36.53
2023-04-17T18:17:43.072Z,36.65
2023-04-17T18:20:10.296Z,37.03
2023-04-17T18:22:38.246Z,37.65
2023-04-17T18:25:06.964Z,38.29
2023-04-17T18:27:36.224Z,38.47
2023-04-17T18:30:08.411Z,38.64
2023-04-17T18:32:35.973Z,38.89
2023-04-17T18:35:02.886Z,38.81
2023-04-17T18:37:29.413Z,38.76
2023-04-17T18:39:56.025Z,39.35
2023-04-17T18:42:22.818Z,39.49
2023-04-17T18:44:49.882Z,39.28
2023-04-17T18:47:16.750Z,39.69
2023-04-17T18:49:43.390Z,40.06
2023-04-17T18:52:09.908Z,40.78
2023-04-17T18:54:36.627Z,40.77
2023-04-17T18:57:03.238Z,41.19
2023-04-17T18:59:30.176Z,41.12
2023-04-17T19:01:56.822Z,41.87
2023-04-17T19:04:23.443Z,41.71
2023-04-17T19:06:50.138Z,42.01
2023-04-17T19:09:16.633Z,42.10
2023-04-17T19:11:43.399Z,42.27
2023-04-17T19:14:09.962Z,42.44
2023-04-17T19:16:36.581Z,42.63
2023-04-17T19:19:05.380Z,42.55
2023-04-17T19:21:32.716Z,42.37
2023-04-17T19:23:59.209Z,42.73
2023-04-17T19:26:25.799Z,42.57
2023-04-17T19:28:52.264Z,42.87
2023-04-17T19:31:18.806Z,43.20
2023-04-17T19:33:45.330Z,43.46
2023-04-17T19:36:11.798Z,43.64
2023-04-17T19:38:38.355Z,43.70
2023-04-17T19:41:17.793Z,43.43
2023-04-17T19:43:51.672Z,43.75
2023-04-17T19:46:20.422Z,43.89
2023-04-17T19:48:48.179Z,43.90
2023-04-17T19:51:15.841Z,43.79
2023-04-17T19:53:44.905Z,44.40
2023-04-17T19:56:11.572Z,44.05
2023-04-17T19:58:38.596Z,44.22
2023-04-17T20:01:05.550Z,44.39
2023-04-17T20:03:33.160Z,44.34
2023-04-17T20:06:00.441Z,45.03
2023-04-17T20:08:27.069Z,45.42
2023-04-17T20:10:53.740Z,45.17
2023-04-17T20:13:21.291Z,45.80
2023-04-17T20:15:47.798Z,45.68
2023-04-17T20:18:14.345Z,45.86
2023-04-17T20:20:40.826Z,45.90
2023-04-17T20:23:07.267Z,45.68
2023-04-17T20:25:33.829Z,46.23
2023-04-17T20:28:02.638Z,46.44
2023-04-17T20:30:29.419Z,46.58
2023-04-17T20:32:56.163Z,46.19
2023-04-17T20:35:24.480Z,46.37
2023-04-17T20:37:51.883Z,46.94
2023-04-17T20:40:19.142Z,46.59
2023-04-17T20:42:46.691Z,46.79
2023-04-17T20:45:13.430Z,46.42
2023-04-17T20:47:56.000Z,46.78
2023-04-17T20:50:24.934Z,46.64
2023-04-17T20:52:51.417Z,46.96
2023-04-17T20:55:19.558Z,46.58
2023-04-17T20:57:46.256Z,47.66
2023-04-17T21:00:13.349Z,48.42
2023-04-17T21:02:40.033Z,48.83
2023-04-17T21:05:07.715Z,49.04
2023-04-17T21:07:34.255Z,48.92
2023-04-17T21:10:00.830Z,49.38
2023-04-17T21:12:27.395Z,49.43
2023-04-17T21:14:53.875Z,49.23
2023-04-17T21:17:20.342Z,49.18
2023-04-17T21:19:47.324Z,49.06
2023-04-17T21:22:13.794Z,49.13
2023-04-17T21:24:40.369Z,49.50
2023-04-17T21:27:06.840Z,49.53
2023-04-17T21:29:33.307Z,49.38
2023-04-17T21:31:59.881Z,49.21
2023-04-17T21:34:26.574Z,49.07
2023-04-17T21:36:54.210Z,49.31
2023-04-17T21:39:21.770Z,49.20
2023-04-17T21:41:48.288Z,49.40
2023-04-17T21:44:15.283Z,49.40
2023-04-17T21:46:45.947Z,49.38
2023-04-17T21:49:12.489Z,49.25
2023-04-17T21:51:39.178Z,49.63
2023-04-17T21:54:05.793Z,49.71
2023-04-17T21:56:32.299Z,49.77
2023-04-17T21:58:58.765Z,49.57
2023-04-17T22:01:25.356Z,49.68
2023-04-17T22:03:51.941Z,50.11
2023-04-17T22:06:18.873Z,50.62
2023-04-17T22:08:46.228Z,50.62
2023-04-17T22:11:12.701Z,50.51
2023-04-17T22:13:39.220Z,50.54
2023-04-17T22:16:06.418Z,50.52
2023-04-17T22:18:32.916Z,50.66
2023-04-17T22:20:59.424Z,50.70
2023-04-17T22:23:25.904Z,51.09
2023-04-17T22:25:52.405Z,51.49
2023-04-17T22:28:18.955Z,51.42
2023-04-17T22:30:45.481Z,51.92
2023-04-17T22:33:11.984Z,51.80
2023-04-17T22:35:38.466Z,51.94
2023-04-17T22:38:04.942Z,52.04
2023-04-17T22:40:31.517Z,52.58
2023-04-17T22:42:57.969Z,52.81
2023-04-17T22:45:24.446Z,52.69
2023-04-17T22:47:50.974Z,52.61
2023-04-17T22:50:18.059Z,53.28
2023-04-17T22:52:44.580Z,53.43
2023-04-17T22:55:11.329Z,53.17
2023-04-17T22:57:38.017Z,53.29
2023-04-17T23:00:07.436Z,53.25
2023-04-17T23:02:33.985Z,53.96
2023-04-17T23:05:00.546Z,54.14
2023-04-17T23:07:27.323Z,53.75
2023-04-17T23:09:53.852Z,54.09
2023-04-17T23:12:20.940Z,54.36
2023-04-17T23:14:50.325Z,54.12
2023-04-17T23:17:16.852Z,53.59
2023-04-17T23:19:43.383Z,53.54
2023-04-17T23:22:09.998Z,53.06
2023-04-17T23:24:36.547Z,53.17
2023-04-17T23:27:03.076Z,53.75
2023-04-17T23:29:29.667Z,53.93
2023-04-17T23:31:56.179Z,53.92
2023-04-17T23:34:22.658Z,54.15
2023-04-17T23:36:49.170Z,55.24
2023-04-17T23:39:15.612Z,54.88
2023-04-17T23:41:45.586Z,54.51
2023-04-17T23:44:12.246Z,54.99
2023-04-17T23:46:38.941Z,55.27
2023-04-17T23:49:05.499Z,56.28
2023-04-17T23:51:32.012Z,55.92
2023-04-17T23:54:00.925Z,55.68
2023-04-17T23:56:29.787Z,55.79
2023-04-17T23:58:57.034Z,55.94
